Ms Stig Inge — LK3724 — position and weather

sailwx.info

Track history (hours):
 
Tides and Currents Weather Stations Pressure Air Temp Water Temp Dewpoint Dewpoint Depression Visibility Wind Speed Wind Dir Waves Ship Positions

Ms Stig Inge

Last reported at 2017-Nov-16 09:06 UTC. Time now 2017-Nov-17 23:20 UTC.
Position N 69°23' E 015°51'.

Length 15 m.

Type: Fishing. MMSI: 257105040.

Date/timePositionNaut miles runAvg speedWind from/ knotsBaromVisibWave heightAir tempDewpointWater temp
2017-Nov-16 09:06N 69°23' E 015°51'1 4.7
2017-Nov-16 08:59N 69°24' E 015°53'0 0.3
2017-Nov-16 08:30N 69°24' E 015°52'0 0.4
2017-Nov-16 08:00N 69°23' E 015°53'1 1.7
2017-Nov-16 07:30N 69°23' E 015°52'0 0.9
2017-Nov-16 07:00N 69°22' E 015°51'0 0.5
2017-Nov-16 06:30N 69°22' E 015°52'0 0.6
2017-Nov-16 06:00N 69°22' E 015°51'3 5.6
2017-Nov-16 05:30N 69°21' E 015°59'4 6.8
2017-Nov-16 04:59N 69°20' E 016°07'0 0.1
2017-Nov-16 04:28N 69°19' E 016°07'0 0.0
2017-Nov-16 03:58N 69°19' E 016°07'0 0.0
2017-Nov-16 03:28N 69°19' E 016°07'0 0.0
2017-Nov-16 02:58N 69°19' E 016°07'0 0.0
2017-Nov-16 02:28N 69°19' E 016°07'0 0.0
2017-Nov-16 01:58N 69°19' E 016°07'0 0.0
2017-Nov-16 01:28N 69°19' E 016°07'0 0.0
2017-Nov-16 00:58N 69°19' E 016°07'0 0.0
2017-Nov-16 00:28N 69°19' E 016°07'0 0.0
2017-Nov-15 23:58N 69°19' E 016°07'0 0.0
2017-Nov-15 23:28N 69°19' E 016°07'0 0.0
2017-Nov-15 22:58N 69°19' E 016°07'0 0.0
2017-Nov-15 22:28N 69°19' E 016°07'0 0.0
2017-Nov-15 21:58N 69°19' E 016°07'0 0.0
2017-Nov-15 21:28N 69°19' E 016°07'0 0.0
2017-Nov-15 20:58N 69°19' E 016°07'0 0.0
2017-Nov-15 20:28N 69°19' E 016°07'0 0.0
2017-Nov-15 19:58N 69°19' E 016°07'0 0.0
2017-Nov-15 19:25N 69°19' E 016°07'0 0.0
2017-Nov-15 18:58N 69°19' E 016°07'0 0.0
2017-Nov-15 18:28N 69°19' E 016°07'0 0.0
2017-Nov-15 17:58N 69°19' E 016°07'0 0.0
2017-Nov-15 17:28N 69°19' E 016°07'0 0.0
2017-Nov-15 16:58N 69°19' E 016°07'0 0.0
2017-Nov-15 16:28N 69°19' E 016°07'0 0.0
2017-Nov-15 15:58N 69°19' E 016°07'0 0.0
2017-Nov-15 15:28N 69°19' E 016°07'0 0.0
2017-Nov-15 14:58N 69°19' E 016°07'0 0.0
2017-Nov-15 14:28N 69°19' E 016°07'0 0.0
2017-Nov-15 13:58N 69°19' E 016°07'0 0.0
2017-Nov-15 13:28N 69°19' E 016°07'0 0.0
2017-Nov-15 12:58N 69°19' E 016°07'0 0.0
2017-Nov-15 12:28N 69°19' E 016°07'0 0.0
2017-Nov-15 11:58N 69°19' E 016°07'0 0.0
2017-Nov-15 11:28N 69°19' E 016°07'0 0.0
2017-Nov-15 10:58N 69°19' E 016°07'0 0.0
2017-Nov-15 10:28N 69°19' E 016°07'0 0.0
2017-Nov-15 09:58N 69°19' E 016°07'1 1.8
2017-Nov-15 09:30N 69°20' E 016°06'4 8.4
2017-Nov-15 09:00N 69°22' E 015°55'1 3.1
2017-Nov-15 08:31N 69°23' E 015°52'0 0.9
2017-Nov-15 08:00N 69°23' E 015°53'0 0.3
2017-Nov-15 07:29N 69°24' E 015°53'0 0.1
2017-Nov-15 07:00N 69°24' E 015°53'0 0.8
2017-Nov-15 06:30N 69°24' E 015°52'0 0.2
2017-Nov-15 05:59N 69°24' E 015°52'3 6.0
2017-Nov-15 05:30N 69°22' E 015°59'4 7.5
2017-Nov-15 05:00N 69°20' E 016°07'0 0.6
2017-Nov-15 04:28N 69°19' E 016°07'0 0.0
2017-Nov-15 03:58N 69°19' E 016°07'0 0.0
2017-Nov-15 03:28N 69°19' E 016°07'0 0.0
2017-Nov-15 02:58N 69°19' E 016°07'0 0.0
2017-Nov-15 02:28N 69°19' E 016°07'0 0.0
2017-Nov-15 01:58N 69°19' E 016°07'0 0.0
2017-Nov-15 01:28N 69°19' E 016°07'0 0.0
2017-Nov-15 00:58N 69°19' E 016°07'0 0.0
2017-Nov-15 00:28N 69°19' E 016°07'0 0.0
2017-Nov-14 23:58N 69°19' E 016°07'0 0.0
2017-Nov-14 23:28N 69°19' E 016°07'0 0.0
2017-Nov-14 22:58N 69°19' E 016°07'0 0.0
2017-Nov-14 22:28N 69°19' E 016°07'0 0.0
2017-Nov-14 21:58N 69°19' E 016°07'0 0.0
2017-Nov-14 21:29N 69°19' E 016°07'0 0.0
2017-Nov-14 20:59N 69°19' E 016°07'0 0.0
2017-Nov-14 20:29N 69°19' E 016°07'0 0.0
2017-Nov-14 19:59N 69°19' E 016°07'0 0.0
2017-Nov-14 19:29N 69°19' E 016°07'0 0.0
2017-Nov-14 18:59N 69°19' E 016°07'0 0.0
2017-Nov-14 18:29N 69°19' E 016°07'0 0.0
2017-Nov-14 17:59N 69°19' E 016°07'0 0.0
2017-Nov-14 17:29N 69°19' E 016°07'0 0.0
2017-Nov-14 16:59N 69°19' E 016°07'0 0.0
2017-Nov-14 16:29N 69°19' E 016°07'0 0.0
2017-Nov-14 15:59N 69°19' E 016°07'0 0.0
2017-Nov-14 15:29N 69°19' E 016°07'0 0.0
2017-Nov-14 14:59N 69°19' E 016°07'0 0.0
2017-Nov-14 14:30N 69°19' E 016°07'0 0.0
2017-Nov-14 14:00N 69°19' E 016°07'2 3.5
2017-Nov-14 13:30N 69°21' E 016°04'4 7.8
2017-Nov-14 13:00N 69°22' E 015°53'1 1.4
2017-Nov-14 12:30N 69°22' E 015°52'0 0.1
2017-Nov-14 12:00N 69°22' E 015°51'0 0.6
2017-Nov-14 11:31N 69°22' E 015°51'0 0.6
2017-Nov-14 11:00N 69°22' E 015°52'0 0.5
2017-Nov-14 10:30N 69°22' E 015°51'1 1.0
2017-Nov-14 10:00N 69°23' E 015°52'1 1.4
2017-Nov-14 09:29N 69°23' E 015°53'0 0.4
2017-Nov-14 09:00N 69°23' E 015°52'1 1.0
2017-Nov-14 08:30N 69°24' E 015°53'0 0.7
2017-Nov-14 08:00N 69°23' E 015°52'0 0.4
2017-Nov-14 07:30N 69°24' E 015°52'0 0.5
2017-Nov-14 06:59N 69°24' E 015°52'0 0.3
2017-Nov-14 06:30N 69°24' E 015°52'0 0.2
2017-Nov-14 06:00N 69°24' E 015°52'3 6.4
2017-Nov-14 05:30N 69°22' E 015°60'4 7.0
2017-Nov-14 05:00N 69°20' E 016°07'0 0.5
2017-Nov-14 04:30N 69°19' E 016°07'0 0.0
2017-Nov-14 04:00N 69°19' E 016°07'0 0.0
2017-Nov-14 03:30N 69°19' E 016°07'0 0.0
2017-Nov-14 03:00N 69°19' E 016°07'0 0.0
2017-Nov-14 02:30N 69°19' E 016°07'0 0.0
2017-Nov-14 02:00N 69°19' E 016°07'0 0.0
2017-Nov-14 01:30N 69°19' E 016°07'0 0.0
2017-Nov-14 01:00N 69°19' E 016°07'0 0.0
2017-Nov-14 00:30N 69°19' E 016°07'0 0.0
2017-Nov-14 00:00N 69°19' E 016°07'0 0.0
2017-Nov-13 23:30N 69°19' E 016°07'0 0.0
2017-Nov-13 23:00N 69°19' E 016°07'0 0.0
2017-Nov-13 22:30N 69°19' E 016°07'0 0.0
2017-Nov-13 22:00N 69°19' E 016°07'0 0.0
2017-Nov-13 01:59N 69°19' E 016°07'0 0.0
2017-Nov-13 01:29N 69°19' E 016°07'0 0.0
2017-Nov-13 00:59N 69°19' E 016°07'0 0.0
2017-Nov-13 00:29N 69°19' E 016°07'0 0.0
2017-Nov-12 23:59N 69°19' E 016°07'0 0.0
2017-Nov-12 23:29N 69°19' E 016°07'0 0.0
2017-Nov-12 22:59N 69°19' E 016°07'0 0.0
2017-Nov-12 22:29N 69°19' E 016°07'0 0.0
2017-Nov-12 21:59N 69°19' E 016°07'0 0.0
2017-Nov-12 21:29N 69°19' E 016°07'0 0.0
2017-Nov-12 20:59N 69°19' E 016°07'0 0.0
2017-Nov-12 20:29N 69°19' E 016°07'0 0.0
2017-Nov-12 19:59N 69°19' E 016°07'0 0.0
2017-Nov-12 19:28N 69°19' E 016°07'0 0.0
2017-Nov-12 18:58N 69°19' E 016°07'0 0.0
2017-Nov-12 18:28N 69°19' E 016°07'0 0.0
2017-Nov-12 17:58N 69°19' E 016°07'0 0.0
2017-Nov-12 17:28N 69°19' E 016°07'0 0.0
2017-Nov-12 16:58N 69°19' E 016°07'0 0.0
2017-Nov-12 16:28N 69°19' E 016°07'0 0.0
2017-Nov-12 15:58N 69°19' E 016°07'0 0.0
2017-Nov-12 15:29N 69°19' E 016°07'0 0.0
2017-Nov-12 14:58N 69°19' E 016°07'0 0.0
2017-Nov-12 14:29N 69°19' E 016°07'0 0.0
2017-Nov-12 13:58N 69°19' E 016°07'0 0.0
2017-Nov-12 13:29N 69°19' E 016°07'0 0.0
2017-Nov-12 12:59N 69°19' E 016°07'0 0.0
2017-Nov-12 12:29N 69°19' E 016°07'0 0.0
2017-Nov-12 11:59N 69°19' E 016°07'0 0.0
2017-Nov-12 11:29N 69°19' E 016°07'0 0.0
2017-Nov-12 10:59N 69°19' E 016°07'0 0.0
2017-Nov-12 10:29N 69°19' E 016°07'0 0.0
2017-Nov-12 09:59N 69°19' E 016°07'0 0.0
2017-Nov-12 09:29N 69°19' E 016°07'0 0.0
2017-Nov-12 08:59N 69°19' E 016°07'0 0.0
2017-Nov-12 08:29N 69°19' E 016°07'0 0.0
2017-Nov-12 07:59N 69°19' E 016°07'0 0.0
2017-Nov-12 07:29N 69°19' E 016°07'0 0.0
2017-Nov-12 06:59N 69°19' E 016°07'0 0.0
2017-Nov-12 06:29N 69°19' E 016°07'0 0.0
2017-Nov-12 05:59N 69°19' E 016°07'0 0.0
2017-Nov-12 05:29N 69°19' E 016°07'0 0.0
2017-Nov-12 04:59N 69°19' E 016°07'0 0.0
2017-Nov-12 04:29N 69°19' E 016°07'0 0.0
2017-Nov-12 03:59N 69°19' E 016°07'0 0.0
2017-Nov-12 03:29N 69°19' E 016°07'0 0.0
2017-Nov-12 02:59N 69°19' E 016°07'0 0.0
2017-Nov-12 02:29N 69°19' E 016°07'0 0.0
2017-Nov-12 01:59N 69°19' E 016°07'0 0.0
2017-Nov-12 01:29N 69°19' E 016°07'0 0.0
2017-Nov-12 00:59N 69°19' E 016°07'0 0.0
2017-Nov-12 00:29N 69°19' E 016°07'0 0.0
2017-Nov-11 23:59N 69°19' E 016°07'0 0.0
2017-Nov-11 23:29N 69°19' E 016°07'0 0.0
2017-Nov-11 22:59N 69°19' E 016°07'0 0.0
2017-Nov-11 22:29N 69°19' E 016°07'0 0.0
2017-Nov-11 21:59N 69°19' E 016°07'0 0.0
2017-Nov-11 21:29N 69°19' E 016°07'0 0.0
2017-Nov-11 20:59N 69°19' E 016°07'0 0.0
2017-Nov-11 20:29N 69°19' E 016°07'0 0.0
2017-Nov-11 19:59N 69°19' E 016°07'0 0.0
2017-Nov-11 19:29N 69°19' E 016°07'0 0.0
2017-Nov-11 18:59N 69°19' E 016°07'0 0.0
2017-Nov-11 18:29N 69°19' E 016°07'0 0.0
2017-Nov-11 17:59N 69°19' E 016°07'0 0.0
2017-Nov-11 17:29N 69°19' E 016°07'0 0.0
2017-Nov-11 16:59N 69°19' E 016°07'0 0.0
2017-Nov-11 16:29N 69°19' E 016°07'0 0.0
2017-Nov-11 15:59N 69°19' E 016°07'0 0.0
2017-Nov-11 15:29N 69°19' E 016°07'0 0.0
2017-Nov-11 14:59N 69°19' E 016°07'0 0.0
2017-Nov-11 14:29N 69°19' E 016°07'0 0.0
2017-Nov-11 13:59N 69°19' E 016°07'0 0.0
2017-Nov-11 13:30N 69°19' E 016°07'0 0.4
2017-Nov-11 13:00N 69°20' E 016°07'4 8.0
2017-Nov-11 12:30N 69°22' E 015°58'2 4.8
2017-Nov-11 12:00N 69°22' E 015°51'0 0.5
2017-Nov-11 11:30N 69°22' E 015°51'0 0.3
2017-Nov-11 10:59N 69°22' E 015°51'1 2.5
2017-Nov-11 10:30N 69°23' E 015°52'1 2.9
2017-Nov-11 10:00N 69°25' E 015°51'0 0.5
2017-Nov-11 09:29N 69°25' E 015°51'1 2.7
2017-Nov-11 09:00N 69°24' E 015°53'1 1.7
2017-Nov-11 08:30N 69°24' E 015°52'0 0.6
2017-Nov-11 08:01N 69°24' E 015°51'1 1.1
2017-Nov-11 07:30N 69°24' E 015°51'1 1.4
2017-Nov-11 07:00N 69°23' E 015°52'0 0.7
2017-Nov-11 06:30N 69°23' E 015°53'4 7.4
2017-Nov-11 06:00N 69°21' E 016°02'3 5.0
2017-Nov-11 05:29N 69°19' E 016°07'0 0.0
2017-Nov-11 04:59N 69°19' E 016°07'0 0.0
2017-Nov-11 04:29N 69°19' E 016°07'0 0.0
2017-Nov-11 03:59N 69°19' E 016°07'0 0.0
2017-Nov-11 03:29N 69°19' E 016°07'0 0.0
2017-Nov-11 02:59N 69°19' E 016°07'0 0.0
2017-Nov-11 02:29N 69°19' E 016°07'0 0.0
2017-Nov-11 01:59N 69°19' E 016°07'0 0.0
2017-Nov-11 01:29N 69°19' E 016°07'0 0.0
2017-Nov-11 00:59N 69°19' E 016°07'0 0.0
2017-Nov-11 00:29N 69°19' E 016°07'0 0.0
2017-Nov-10 23:59N 69°19' E 016°07'0 0.0
2017-Nov-10 23:29N 69°19' E 016°07'0 0.0
2017-Nov-10 22:59N 69°19' E 016°07'0 0.0
2017-Nov-10 22:29N 69°19' E 016°07'0 0.0
2017-Nov-10 21:59N 69°19' E 016°07'0 0.0
2017-Nov-10 21:29N 69°19' E 016°07'0 0.0
2017-Nov-10 20:59N 69°19' E 016°07'0 0.0
2017-Nov-10 20:29N 69°19' E 016°07'0 0.0
2017-Nov-10 19:59N 69°19' E 016°07'0 0.0
2017-Nov-10 19:26N 69°19' E 016°07'0 0.0
2017-Nov-10 18:59N 69°19' E 016°07'0 0.0
2017-Nov-10 18:29N 69°19' E 016°07'0 0.0
2017-Nov-10 17:59N 69°19' E 016°07'0 0.0
2017-Nov-10 17:29N 69°19' E 016°07'0 0.0
2017-Nov-10 16:59N 69°19' E 016°07'0 0.0
2017-Nov-10 16:29N 69°19' E 016°07'0 0.0
2017-Nov-10 15:59N 69°19' E 016°07'0 0.0
2017-Nov-10 15:29N 69°19' E 016°07'0 0.0
2017-Nov-10 14:59N 69°19' E 016°07'0 0.0
2017-Nov-10 14:29N 69°19' E 016°07'0 0.0
2017-Nov-10 13:59N 69°19' E 016°07'0 0.0
2017-Nov-10 13:29N 69°19' E 016°07'0 1.0
2017-Nov-10 13:00N 69°20' E 016°07'4 7.9
2017-Nov-10 12:29N 69°22' E 015°56'2 4.3
2017-Nov-10 12:00N 69°22' E 015°51'0 0.2
2017-Nov-10 11:30N 69°22' E 015°51'0 0.5
2017-Nov-10 11:00N 69°22' E 015°51'0 0.7
2017-Nov-10 10:30N 69°22' E 015°52'0 0.4
2017-Nov-10 09:59N 69°23' E 015°52'0 0.8
2017-Nov-10 09:30N 69°23' E 015°51'0 0.7
2017-Nov-10 09:00N 69°23' E 015°52'0 0.3
2017-Nov-10 08:31N 69°23' E 015°52'1 2.7
2017-Nov-10 08:00N 69°24' E 015°51'0 0.5
2017-Nov-10 07:30N 69°24' E 015°52'1 1.3
2017-Nov-10 06:59N 69°25' E 015°52'0 0.5
2017-Nov-10 06:30N 69°25' E 015°51'1 1.2
2017-Nov-10 06:00N 69°25' E 015°53'4 8.1
2017-Nov-10 05:30N 69°22' E 016°01'3 6.2
2017-Nov-10 04:59N 69°19' E 016°07'0 0.0
2017-Nov-09 23:09N 69°19' E 016°07'0 0.0
2017-Nov-09 23:00N 69°19' E 016°07'0 0.0
2017-Nov-09 22:30N 69°19' E 016°07'0 0.0
2017-Nov-09 22:00N 69°19' E 016°07'0 0.0
2017-Nov-09 21:30N 69°19' E 016°07'0 0.0
2017-Nov-09 21:00N 69°19' E 016°07'0 0.0
2017-Nov-09 20:30N 69°19' E 016°07'0 0.0
2017-Nov-09 20:00N 69°19' E 016°07'0 0.0
2017-Nov-09 19:30N 69°19' E 016°07'0 0.0
2017-Nov-09 19:00N 69°19' E 016°07'0 0.0
2017-Nov-09 18:30N 69°19' E 016°07'0 0.0
2017-Nov-09 18:00N 69°19' E 016°07'0 0.0
2017-Nov-09 17:30N 69°19' E 016°07'0 0.0
2017-Nov-09 17:00N 69°19' E 016°07'0 0.0
2017-Nov-09 16:30N 69°19' E 016°07'0 0.0
2017-Nov-09 16:00N 69°19' E 016°07'0 0.0
2017-Nov-09 15:30N 69°19' E 016°07'0 0.0
2017-Nov-09 15:00N 69°19' E 016°07'0 0.0
2017-Nov-09 14:30N 69°19' E 016°07'0 0.0
2017-Nov-09 14:00N 69°19' E 016°07'0 0.0
2017-Nov-09 13:30N 69°19' E 016°07'0 0.0
2017-Nov-09 13:00N 69°19' E 016°07'0 0.0
2017-Nov-09 12:30N 69°19' E 016°07'0 0.0
2017-Nov-09 12:00N 69°19' E 016°07'0 0.0
2017-Nov-09 11:30N 69°19' E 016°07'0 0.0
2017-Nov-09 10:57N 69°19' E 016°07'0 0.0
2017-Nov-09 10:30N 69°19' E 016°07'0 0.0
2017-Nov-09 10:00N 69°19' E 016°07'0 0.0
2017-Nov-09 09:30N 69°19' E 016°07'0 0.0
2017-Nov-09 09:00N 69°19' E 016°07'0 0.0
2017-Nov-09 08:30N 69°19' E 016°07'0 0.0
2017-Nov-09 08:00N 69°19' E 016°07'0 0.0
2017-Nov-09 07:30N 69°19' E 016°07'0 0.0
2017-Nov-09 07:00N 69°19' E 016°07'0 0.0
2017-Nov-09 06:30N 69°19' E 016°07'0 0.0
2017-Nov-09 06:00N 69°19' E 016°07'0 0.0
2017-Nov-09 05:30N 69°19' E 016°07'0 0.0
2017-Nov-09 05:00N 69°19' E 016°07'0 0.0
2017-Nov-09 04:30N 69°19' E 016°07'0 0.0
2017-Nov-09 04:00N 69°19' E 016°07'0 0.0
2017-Nov-09 03:30N 69°19' E 016°07'0 0.0
2017-Nov-09 03:00N 69°19' E 016°07'0 0.0
2017-Nov-09 02:30N 69°19' E 016°07'0 0.0
2017-Nov-09 02:00N 69°19' E 016°07'0 0.0
2017-Nov-09 01:30N 69°19' E 016°07'0 0.0
2017-Nov-09 01:00N 69°19' E 016°07'0 0.0
2017-Nov-09 00:30N 69°19' E 016°07'0 0.0
2017-Nov-09 00:00N 69°19' E 016°07'0 0.0
2017-Nov-08 23:30N 69°19' E 016°07'0 0.0
2017-Nov-08 23:00N 69°19' E 016°07'0 0.0
2017-Nov-08 22:30N 69°19' E 016°07'0 0.0
2017-Nov-08 22:00N 69°19' E 016°07'0 0.0
2017-Nov-08 21:30N 69°19' E 016°07'0 0.0
2017-Nov-08 21:00N 69°19' E 016°07'0 0.0
2017-Nov-08 20:30N 69°19' E 016°07'0 0.0
2017-Nov-08 20:00N 69°19' E 016°07'0 0.0
2017-Nov-08 19:30N 69°19' E 016°07'0 0.0
2017-Nov-08 19:00N 69°19' E 016°07'0 0.0
2017-Nov-08 18:30N 69°19' E 016°07'0 0.0
2017-Nov-08 18:00N 69°19' E 016°07'0 0.0
2017-Nov-08 17:30N 69°19' E 016°07'0 0.0
2017-Nov-08 17:00N 69°19' E 016°07'0 0.0
2017-Nov-08 16:30N 69°19' E 016°07'0 0.0
2017-Nov-08 16:00N 69°19' E 016°07'0 0.0
2017-Nov-08 15:30N 69°19' E 016°07'0 0.0
2017-Nov-08 15:00N 69°19' E 016°07'0 0.0
2017-Nov-08 14:30N 69°19' E 016°07'0 0.0
2017-Nov-08 13:45N 69°19' E 016°07'0 0.0
2017-Nov-08 13:30N 69°19' E 016°07'0 0.0
2017-Nov-08 12:36N 69°19' E 016°07'0 0.0
2017-Nov-08 12:30N 69°19' E 016°07'0 0.0
2017-Nov-08 11:48N 69°19' E 016°07'0 0.0
2017-Nov-08 09:03N 69°19' E 016°07'0 0.0
2017-Nov-08 09:00N 69°19' E 016°07'0 0.0
2017-Nov-08 08:30N 69°19' E 016°07'0 0.0
2017-Nov-07 14:04N 69°19' E 016°07'0 0.0
2017-Nov-07 13:58N 69°19' E 016°07'0 0.0
2017-Nov-07 13:28N 69°19' E 016°07'0 0.0
2017-Nov-07 12:58N 69°19' E 016°07'0 0.0
2017-Nov-07 12:27N 69°19' E 016°07'  
Track history (hours):
 
Tides and Currents Weather Stations Pressure Air Temp Water Temp Dewpoint Dewpoint Depression Visibility Wind Speed Wind Dir Waves Ship Positions

Ms Stig Inge

Last reported at 2017-Nov-16 09:06 UTC. Time now 2017-Nov-17 23:20 UTC.
Position N 69°23' E 015°51'.

Length 15 m.

Type: Fishing. MMSI: 257105040.

Date/timePositionNaut miles runAvg speedWind from/ knotsBaromVisibWave heightAir tempDewpointWater temp
2017-Nov-16 09:06N 69°23' E 015°51'1 4.7
2017-Nov-16 08:59N 69°24' E 015°53'0 0.3
2017-Nov-16 08:30N 69°24' E 015°52'0 0.4
2017-Nov-16 08:00N 69°23' E 015°53'1 1.7
2017-Nov-16 07:30N 69°23' E 015°52'0 0.9
2017-Nov-16 07:00N 69°22' E 015°51'0 0.5
2017-Nov-16 06:30N 69°22' E 015°52'0 0.6
2017-Nov-16 06:00N 69°22' E 015°51'3 5.6
2017-Nov-16 05:30N 69°21' E 015°59'4 6.8
2017-Nov-16 04:59N 69°20' E 016°07'0 0.1
2017-Nov-16 04:28N 69°19' E 016°07'0 0.0
2017-Nov-16 03:58N 69°19' E 016°07'0 0.0
2017-Nov-16 03:28N 69°19' E 016°07'0 0.0
2017-Nov-16 02:58N 69°19' E 016°07'0 0.0
2017-Nov-16 02:28N 69°19' E 016°07'0 0.0
2017-Nov-16 01:58N 69°19' E 016°07'0 0.0
2017-Nov-16 01:28N 69°19' E 016°07'0 0.0
2017-Nov-16 00:58N 69°19' E 016°07'0 0.0
2017-Nov-16 00:28N 69°19' E 016°07'0 0.0
2017-Nov-15 23:58N 69°19' E 016°07'0 0.0
2017-Nov-15 23:28N 69°19' E 016°07'0 0.0
2017-Nov-15 22:58N 69°19' E 016°07'0 0.0
2017-Nov-15 22:28N 69°19' E 016°07'0 0.0
2017-Nov-15 21:58N 69°19' E 016°07'0 0.0
2017-Nov-15 21:28N 69°19' E 016°07'0 0.0
2017-Nov-15 20:58N 69°19' E 016°07'0 0.0
2017-Nov-15 20:28N 69°19' E 016°07'0 0.0
2017-Nov-15 19:58N 69°19' E 016°07'0 0.0
2017-Nov-15 19:25N 69°19' E 016°07'0 0.0
2017-Nov-15 18:58N 69°19' E 016°07'0 0.0
2017-Nov-15 18:28N 69°19' E 016°07'0 0.0
2017-Nov-15 17:58N 69°19' E 016°07'0 0.0
2017-Nov-15 17:28N 69°19' E 016°07'0 0.0
2017-Nov-15 16:58N 69°19' E 016°07'0 0.0
2017-Nov-15 16:28N 69°19' E 016°07'0 0.0
2017-Nov-15 15:58N 69°19' E 016°07'0 0.0
2017-Nov-15 15:28N 69°19' E 016°07'0 0.0
2017-Nov-15 14:58N 69°19' E 016°07'0 0.0
2017-Nov-15 14:28N 69°19' E 016°07'0 0.0
2017-Nov-15 13:58N 69°19' E 016°07'0 0.0
2017-Nov-15 13:28N 69°19' E 016°07'0 0.0
2017-Nov-15 12:58N 69°19' E 016°07'0 0.0
2017-Nov-15 12:28N 69°19' E 016°07'0 0.0
2017-Nov-15 11:58N 69°19' E 016°07'0 0.0
2017-Nov-15 11:28N 69°19' E 016°07'0 0.0
2017-Nov-15 10:58N 69°19' E 016°07'0 0.0
2017-Nov-15 10:28N 69°19' E 016°07'0 0.0
2017-Nov-15 09:58N 69°19' E 016°07'1 1.8
2017-Nov-15 09:30N 69°20' E 016°06'4 8.4
2017-Nov-15 09:00N 69°22' E 015°55'1 3.1
2017-Nov-15 08:31N 69°23' E 015°52'0 0.9
2017-Nov-15 08:00N 69°23' E 015°53'0 0.3
2017-Nov-15 07:29N 69°24' E 015°53'0 0.1
2017-Nov-15 07:00N 69°24' E 015°53'0 0.8
2017-Nov-15 06:30N 69°24' E 015°52'0 0.2
2017-Nov-15 05:59N 69°24' E 015°52'3 6.0
2017-Nov-15 05:30N 69°22' E 015°59'4 7.5
2017-Nov-15 05:00N 69°20' E 016°07'0 0.6
2017-Nov-15 04:28N 69°19' E 016°07'0 0.0
2017-Nov-15 03:58N 69°19' E 016°07'0 0.0
2017-Nov-15 03:28N 69°19' E 016°07'0 0.0
2017-Nov-15 02:58N 69°19' E 016°07'0 0.0
2017-Nov-15 02:28N 69°19' E 016°07'0 0.0
2017-Nov-15 01:58N 69°19' E 016°07'0 0.0
2017-Nov-15 01:28N 69°19' E 016°07'0 0.0
2017-Nov-15 00:58N 69°19' E 016°07'0 0.0
2017-Nov-15 00:28N 69°19' E 016°07'0 0.0
2017-Nov-14 23:58N 69°19' E 016°07'0 0.0
2017-Nov-14 23:28N 69°19' E 016°07'0 0.0
2017-Nov-14 22:58N 69°19' E 016°07'0 0.0
2017-Nov-14 22:28N 69°19' E 016°07'0 0.0
2017-Nov-14 21:58N 69°19' E 016°07'0 0.0
2017-Nov-14 21:29N 69°19' E 016°07'0 0.0
2017-Nov-14 20:59N 69°19' E 016°07'0 0.0
2017-Nov-14 20:29N 69°19' E 016°07'0 0.0
2017-Nov-14 19:59N 69°19' E 016°07'0 0.0
2017-Nov-14 19:29N 69°19' E 016°07'0 0.0
2017-Nov-14 18:59N 69°19' E 016°07'0 0.0
2017-Nov-14 18:29N 69°19' E 016°07'0 0.0
2017-Nov-14 17:59N 69°19' E 016°07'0 0.0
2017-Nov-14 17:29N 69°19' E 016°07'0 0.0
2017-Nov-14 16:59N 69°19' E 016°07'0 0.0
2017-Nov-14 16:29N 69°19' E 016°07'0 0.0
2017-Nov-14 15:59N 69°19' E 016°07'0 0.0
2017-Nov-14 15:29N 69°19' E 016°07'0 0.0
2017-Nov-14 14:59N 69°19' E 016°07'0 0.0
2017-Nov-14 14:30N 69°19' E 016°07'0 0.0
2017-Nov-14 14:00N 69°19' E 016°07'2 3.5
2017-Nov-14 13:30N 69°21' E 016°04'4 7.8
2017-Nov-14 13:00N 69°22' E 015°53'1 1.4
2017-Nov-14 12:30N 69°22' E 015°52'0 0.1
2017-Nov-14 12:00N 69°22' E 015°51'0 0.6
2017-Nov-14 11:31N 69°22' E 015°51'0 0.6
2017-Nov-14 11:00N 69°22' E 015°52'0 0.5
2017-Nov-14 10:30N 69°22' E 015°51'1 1.0
2017-Nov-14 10:00N 69°23' E 015°52'1 1.4
2017-Nov-14 09:29N 69°23' E 015°53'0 0.4
2017-Nov-14 09:00N 69°23' E 015°52'1 1.0
2017-Nov-14 08:30N 69°24' E 015°53'0 0.7
2017-Nov-14 08:00N 69°23' E 015°52'0 0.4
2017-Nov-14 07:30N 69°24' E 015°52'0 0.5
2017-Nov-14 06:59N 69°24' E 015°52'0 0.3
2017-Nov-14 06:30N 69°24' E 015°52'0 0.2
2017-Nov-14 06:00N 69°24' E 015°52'3 6.4
2017-Nov-14 05:30N 69°22' E 015°60'4 7.0
2017-Nov-14 05:00N 69°20' E 016°07'0 0.5
2017-Nov-14 04:30N 69°19' E 016°07'0 0.0
2017-Nov-14 04:00N 69°19' E 016°07'0 0.0
2017-Nov-14 03:30N 69°19' E 016°07'0 0.0
2017-Nov-14 03:00N 69°19' E 016°07'0 0.0
2017-Nov-14 02:30N 69°19' E 016°07'0 0.0
2017-Nov-14 02:00N 69°19' E 016°07'0 0.0
2017-Nov-14 01:30N 69°19' E 016°07'0 0.0
2017-Nov-14 01:00N 69°19' E 016°07'0 0.0
2017-Nov-14 00:30N 69°19' E 016°07'0 0.0
2017-Nov-14 00:00N 69°19' E 016°07'0 0.0
2017-Nov-13 23:30N 69°19' E 016°07'0 0.0
2017-Nov-13 23:00N 69°19' E 016°07'0 0.0
2017-Nov-13 22:30N 69°19' E 016°07'0 0.0
2017-Nov-13 22:00N 69°19' E 016°07'0 0.0
2017-Nov-13 01:59N 69°19' E 016°07'0 0.0
2017-Nov-13 01:29N 69°19' E 016°07'0 0.0
2017-Nov-13 00:59N 69°19' E 016°07'0 0.0
2017-Nov-13 00:29N 69°19' E 016°07'0 0.0
2017-Nov-12 23:59N 69°19' E 016°07'0 0.0
2017-Nov-12 23:29N 69°19' E 016°07'0 0.0
2017-Nov-12 22:59N 69°19' E 016°07'0 0.0
2017-Nov-12 22:29N 69°19' E 016°07'0 0.0
2017-Nov-12 21:59N 69°19' E 016°07'0 0.0
2017-Nov-12 21:29N 69°19' E 016°07'0 0.0
2017-Nov-12 20:59N 69°19' E 016°07'0 0.0
2017-Nov-12 20:29N 69°19' E 016°07'0 0.0
2017-Nov-12 19:59N 69°19' E 016°07'0 0.0
2017-Nov-12 19:28N 69°19' E 016°07'0 0.0
2017-Nov-12 18:58N 69°19' E 016°07'0 0.0
2017-Nov-12 18:28N 69°19' E 016°07'0 0.0
2017-Nov-12 17:58N 69°19' E 016°07'0 0.0
2017-Nov-12 17:28N 69°19' E 016°07'0 0.0
2017-Nov-12 16:58N 69°19' E 016°07'0 0.0
2017-Nov-12 16:28N 69°19' E 016°07'0 0.0
2017-Nov-12 15:58N 69°19' E 016°07'0 0.0
2017-Nov-12 15:29N 69°19' E 016°07'0 0.0
2017-Nov-12 14:58N 69°19' E 016°07'0 0.0
2017-Nov-12 14:29N 69°19' E 016°07'0 0.0
2017-Nov-12 13:58N 69°19' E 016°07'0 0.0
2017-Nov-12 13:29N 69°19' E 016°07'0 0.0
2017-Nov-12 12:59N 69°19' E 016°07'0 0.0
2017-Nov-12 12:29N 69°19' E 016°07'0 0.0
2017-Nov-12 11:59N 69°19' E 016°07'0 0.0
2017-Nov-12 11:29N 69°19' E 016°07'0 0.0
2017-Nov-12 10:59N 69°19' E 016°07'0 0.0
2017-Nov-12 10:29N 69°19' E 016°07'0 0.0
2017-Nov-12 09:59N 69°19' E 016°07'0 0.0
2017-Nov-12 09:29N 69°19' E 016°07'0 0.0
2017-Nov-12 08:59N 69°19' E 016°07'0 0.0
2017-Nov-12 08:29N 69°19' E 016°07'0 0.0
2017-Nov-12 07:59N 69°19' E 016°07'0 0.0
2017-Nov-12 07:29N 69°19' E 016°07'0 0.0
2017-Nov-12 06:59N 69°19' E 016°07'0 0.0
2017-Nov-12 06:29N 69°19' E 016°07'0 0.0
2017-Nov-12 05:59N 69°19' E 016°07'0 0.0
2017-Nov-12 05:29N 69°19' E 016°07'0 0.0
2017-Nov-12 04:59N 69°19' E 016°07'0 0.0
2017-Nov-12 04:29N 69°19' E 016°07'0 0.0
2017-Nov-12 03:59N 69°19' E 016°07'0 0.0
2017-Nov-12 03:29N 69°19' E 016°07'0 0.0
2017-Nov-12 02:59N 69°19' E 016°07'0 0.0
2017-Nov-12 02:29N 69°19' E 016°07'0 0.0
2017-Nov-12 01:59N 69°19' E 016°07'0 0.0
2017-Nov-12 01:29N 69°19' E 016°07'0 0.0
2017-Nov-12 00:59N 69°19' E 016°07'0 0.0
2017-Nov-12 00:29N 69°19' E 016°07'0 0.0
2017-Nov-11 23:59N 69°19' E 016°07'0 0.0
2017-Nov-11 23:29N 69°19' E 016°07'0 0.0
2017-Nov-11 22:59N 69°19' E 016°07'0 0.0
2017-Nov-11 22:29N 69°19' E 016°07'0 0.0
2017-Nov-11 21:59N 69°19' E 016°07'0 0.0
2017-Nov-11 21:29N 69°19' E 016°07'0 0.0
2017-Nov-11 20:59N 69°19' E 016°07'0 0.0
2017-Nov-11 20:29N 69°19' E 016°07'0 0.0
2017-Nov-11 19:59N 69°19' E 016°07'0 0.0
2017-Nov-11 19:29N 69°19' E 016°07'0 0.0
2017-Nov-11 18:59N 69°19' E 016°07'0 0.0
2017-Nov-11 18:29N 69°19' E 016°07'0 0.0
2017-Nov-11 17:59N 69°19' E 016°07'0 0.0
2017-Nov-11 17:29N 69°19' E 016°07'0 0.0
2017-Nov-11 16:59N 69°19' E 016°07'0 0.0
2017-Nov-11 16:29N 69°19' E 016°07'0 0.0
2017-Nov-11 15:59N 69°19' E 016°07'0 0.0
2017-Nov-11 15:29N 69°19' E 016°07'0 0.0
2017-Nov-11 14:59N 69°19' E 016°07'0 0.0
2017-Nov-11 14:29N 69°19' E 016°07'0 0.0
2017-Nov-11 13:59N 69°19' E 016°07'0 0.0
2017-Nov-11 13:30N 69°19' E 016°07'0 0.4
2017-Nov-11 13:00N 69°20' E 016°07'4 8.0
2017-Nov-11 12:30N 69°22' E 015°58'2 4.8
2017-Nov-11 12:00N 69°22' E 015°51'0 0.5
2017-Nov-11 11:30N 69°22' E 015°51'0 0.3
2017-Nov-11 10:59N 69°22' E 015°51'1 2.5
2017-Nov-11 10:30N 69°23' E 015°52'1 2.9
2017-Nov-11 10:00N 69°25' E 015°51'0 0.5
2017-Nov-11 09:29N 69°25' E 015°51'1 2.7
2017-Nov-11 09:00N 69°24' E 015°53'1 1.7
2017-Nov-11 08:30N 69°24' E 015°52'0 0.6
2017-Nov-11 08:01N 69°24' E 015°51'1 1.1
2017-Nov-11 07:30N 69°24' E 015°51'1 1.4
2017-Nov-11 07:00N 69°23' E 015°52'0 0.7
2017-Nov-11 06:30N 69°23' E 015°53'4 7.4
2017-Nov-11 06:00N 69°21' E 016°02'3 5.0
2017-Nov-11 05:29N 69°19' E 016°07'0 0.0
2017-Nov-11 04:59N 69°19' E 016°07'0 0.0
2017-Nov-11 04:29N 69°19' E 016°07'0 0.0
2017-Nov-11 03:59N 69°19' E 016°07'0 0.0
2017-Nov-11 03:29N 69°19' E 016°07'0 0.0
2017-Nov-11 02:59N 69°19' E 016°07'0 0.0
2017-Nov-11 02:29N 69°19' E 016°07'0 0.0
2017-Nov-11 01:59N 69°19' E 016°07'0 0.0
2017-Nov-11 01:29N 69°19' E 016°07'0 0.0
2017-Nov-11 00:59N 69°19' E 016°07'0 0.0
2017-Nov-11 00:29N 69°19' E 016°07'0 0.0
2017-Nov-10 23:59N 69°19' E 016°07'0 0.0
2017-Nov-10 23:29N 69°19' E 016°07'0 0.0
2017-Nov-10 22:59N 69°19' E 016°07'0 0.0
2017-Nov-10 22:29N 69°19' E 016°07'0 0.0
2017-Nov-10 21:59N 69°19' E 016°07'0 0.0
2017-Nov-10 21:29N 69°19' E 016°07'0 0.0
2017-Nov-10 20:59N 69°19' E 016°07'0 0.0
2017-Nov-10 20:29N 69°19' E 016°07'0 0.0
2017-Nov-10 19:59N 69°19' E 016°07'0 0.0
2017-Nov-10 19:26N 69°19' E 016°07'0 0.0
2017-Nov-10 18:59N 69°19' E 016°07'0 0.0
2017-Nov-10 18:29N 69°19' E 016°07'0 0.0
2017-Nov-10 17:59N 69°19' E 016°07'0 0.0
2017-Nov-10 17:29N 69°19' E 016°07'0 0.0
2017-Nov-10 16:59N 69°19' E 016°07'0 0.0
2017-Nov-10 16:29N 69°19' E 016°07'0 0.0
2017-Nov-10 15:59N 69°19' E 016°07'0 0.0
2017-Nov-10 15:29N 69°19' E 016°07'0 0.0
2017-Nov-10 14:59N 69°19' E 016°07'0 0.0
2017-Nov-10 14:29N 69°19' E 016°07'0 0.0
2017-Nov-10 13:59N 69°19' E 016°07'0 0.0
2017-Nov-10 13:29N 69°19' E 016°07'0 1.0
2017-Nov-10 13:00N 69°20' E 016°07'4 7.9
2017-Nov-10 12:29N 69°22' E 015°56'2 4.3
2017-Nov-10 12:00N 69°22' E 015°51'0 0.2
2017-Nov-10 11:30N 69°22' E 015°51'0 0.5
2017-Nov-10 11:00N 69°22' E 015°51'0 0.7
2017-Nov-10 10:30N 69°22' E 015°52'0 0.4
2017-Nov-10 09:59N 69°23' E 015°52'0 0.8
2017-Nov-10 09:30N 69°23' E 015°51'0 0.7
2017-Nov-10 09:00N 69°23' E 015°52'0 0.3
2017-Nov-10 08:31N 69°23' E 015°52'1 2.7
2017-Nov-10 08:00N 69°24' E 015°51'0 0.5
2017-Nov-10 07:30N 69°24' E 015°52'1 1.3
2017-Nov-10 06:59N 69°25' E 015°52'0 0.5
2017-Nov-10 06:30N 69°25' E 015°51'1 1.2
2017-Nov-10 06:00N 69°25' E 015°53'4 8.1
2017-Nov-10 05:30N 69°22' E 016°01'3 6.2
2017-Nov-10 04:59N 69°19' E 016°07'0 0.0
2017-Nov-09 23:09N 69°19' E 016°07'0 0.0
2017-Nov-09 23:00N 69°19' E 016°07'0 0.0
2017-Nov-09 22:30N 69°19' E 016°07'0 0.0
2017-Nov-09 22:00N 69°19' E 016°07'0 0.0
2017-Nov-09 21:30N 69°19' E 016°07'0 0.0
2017-Nov-09 21:00N 69°19' E 016°07'0 0.0
2017-Nov-09 20:30N 69°19' E 016°07'0 0.0
2017-Nov-09 20:00N 69°19' E 016°07'0 0.0
2017-Nov-09 19:30N 69°19' E 016°07'0 0.0
2017-Nov-09 19:00N 69°19' E 016°07'0 0.0
2017-Nov-09 18:30N 69°19' E 016°07'0 0.0
2017-Nov-09 18:00N 69°19' E 016°07'0 0.0
2017-Nov-09 17:30N 69°19' E 016°07'0 0.0
2017-Nov-09 17:00N 69°19' E 016°07'0 0.0
2017-Nov-09 16:30N 69°19' E 016°07'0 0.0
2017-Nov-09 16:00N 69°19' E 016°07'0 0.0
2017-Nov-09 15:30N 69°19' E 016°07'0 0.0
2017-Nov-09 15:00N 69°19' E 016°07'0 0.0
2017-Nov-09 14:30N 69°19' E 016°07'0 0.0
2017-Nov-09 14:00N 69°19' E 016°07'0 0.0
2017-Nov-09 13:30N 69°19' E 016°07'0 0.0
2017-Nov-09 13:00N 69°19' E 016°07'0 0.0
2017-Nov-09 12:30N 69°19' E 016°07'0 0.0
2017-Nov-09 12:00N 69°19' E 016°07'0 0.0
2017-Nov-09 11:30N 69°19' E 016°07'0 0.0
2017-Nov-09 10:57N 69°19' E 016°07'0 0.0
2017-Nov-09 10:30N 69°19' E 016°07'0 0.0
2017-Nov-09 10:00N 69°19' E 016°07'0 0.0
2017-Nov-09 09:30N 69°19' E 016°07'0 0.0
2017-Nov-09 09:00N 69°19' E 016°07'0 0.0
2017-Nov-09 08:30N 69°19' E 016°07'0 0.0
2017-Nov-09 08:00N 69°19' E 016°07'0 0.0
2017-Nov-09 07:30N 69°19' E 016°07'0 0.0
2017-Nov-09 07:00N 69°19' E 016°07'0 0.0
2017-Nov-09 06:30N 69°19' E 016°07'0 0.0
2017-Nov-09 06:00N 69°19' E 016°07'0 0.0
2017-Nov-09 05:30N 69°19' E 016°07'0 0.0
2017-Nov-09 05:00N 69°19' E 016°07'0 0.0
2017-Nov-09 04:30N 69°19' E 016°07'0 0.0
2017-Nov-09 04:00N 69°19' E 016°07'0 0.0
2017-Nov-09 03:30N 69°19' E 016°07'0 0.0
2017-Nov-09 03:00N 69°19' E 016°07'0 0.0
2017-Nov-09 02:30N 69°19' E 016°07'0 0.0
2017-Nov-09 02:00N 69°19' E 016°07'0 0.0
2017-Nov-09 01:30N 69°19' E 016°07'0 0.0
2017-Nov-09 01:00N 69°19' E 016°07'0 0.0
2017-Nov-09 00:30N 69°19' E 016°07'0 0.0
2017-Nov-09 00:00N 69°19' E 016°07'0 0.0
2017-Nov-08 23:30N 69°19' E 016°07'0 0.0
2017-Nov-08 23:00N 69°19' E 016°07'0 0.0
2017-Nov-08 22:30N 69°19' E 016°07'0 0.0
2017-Nov-08 22:00N 69°19' E 016°07'0 0.0
2017-Nov-08 21:30N 69°19' E 016°07'0 0.0
2017-Nov-08 21:00N 69°19' E 016°07'0 0.0
2017-Nov-08 20:30N 69°19' E 016°07'0 0.0
2017-Nov-08 20:00N 69°19' E 016°07'0 0.0
2017-Nov-08 19:30N 69°19' E 016°07'0 0.0
2017-Nov-08 19:00N 69°19' E 016°07'0 0.0
2017-Nov-08 18:30N 69°19' E 016°07'0 0.0
2017-Nov-08 18:00N 69°19' E 016°07'0 0.0
2017-Nov-08 17:30N 69°19' E 016°07'0 0.0
2017-Nov-08 17:00N 69°19' E 016°07'0 0.0
2017-Nov-08 16:30N 69°19' E 016°07'0 0.0
2017-Nov-08 16:00N 69°19' E 016°07'0 0.0
2017-Nov-08 15:30N 69°19' E 016°07'0 0.0
2017-Nov-08 15:00N 69°19' E 016°07'0 0.0
2017-Nov-08 14:30N 69°19' E 016°07'0 0.0
2017-Nov-08 13:45N 69°19' E 016°07'0 0.0
2017-Nov-08 13:30N 69°19' E 016°07'0 0.0
2017-Nov-08 12:36N 69°19' E 016°07'0 0.0
2017-Nov-08 12:30N 69°19' E 016°07'0 0.0
2017-Nov-08 11:48N 69°19' E 016°07'0 0.0
2017-Nov-08 09:03N 69°19' E 016°07'0 0.0
2017-Nov-08 09:00N 69°19' E 016°07'0 0.0
2017-Nov-08 08:30N 69°19' E 016°07'0 0.0
2017-Nov-07 14:04N 69°19' E 016°07'0 0.0
2017-Nov-07 13:58N 69°19' E 016°07'0 0.0
2017-Nov-07 13:28N 69°19' E 016°07'0 0.0
2017-Nov-07 12:58N 69°19' E 016°07'0 0.0
2017-Nov-07 12:27N 69°19' E 016°07'  

Dump ship's entire track history